Time;durP1;ratioP1;P1;durP2;ratioP2;P2;SDS_P1;SDS_P2;PMS_P1;PMS_P2;Temp;Humidity;BMP_temperature;BMP_pressure;BME280_temperature;BME280_humidity;BME280_pressure;Samples;Min_cycle;Max_cycle;Signal;HPM_P1;HPM_P2
2021/11/16 00:00:39;;;;;;;73.13;34.75;;;;;;;;;;10375670;28;20034;-74
2021/11/16 00:05:39;;;;;;;78.85;33.03;;;;;;;;;;10375906;28;20030;-73
2021/11/16 00:10:40;;;;;;;70.63;34.95;;;;;;;;;;10374401;28;20029;-73
2021/11/16 00:15:41;;;;;;;71.80;38.35;;;;;;;;;;10376568;28;20029;-73
2021/11/16 00:20:43;;;;;;;74.35;38.92;;;;;;;;;;10376263;28;20124;-73
2021/11/16 00:25:44;;;;;;;87.13;35.40;;;;;;;;;;10389247;28;20057;-73
2021/11/16 00:30:44;;;;;;;74.88;37.38;;;;;;;;;;10375010;28;20085;-73
2021/11/16 00:35:45;;;;;;;60.22;35.22;;;;;;;;;;10374955;28;20467;-73
2021/11/16 00:40:45;;;;;;;56.05;34.45;;;;;;;;;;10374729;28;20544;-73
2021/11/16 00:45:46;;;;;;;64.40;34.35;;;;;;;;;;10375296;28;20092;-73
2021/11/16 00:50:48;;;;;;;72.95;33.58;;;;;;;;;;10389842;28;20022;-73
2021/11/16 00:55:49;;;;;;;70.68;38.00;;;;;;;;;;10374502;28;20522;-73
2021/11/16 01:00:49;;;;;;;74.28;33.90;;;;;;;;;;10389092;28;20171;-73
2021/11/16 01:05:50;;;;;;;63.80;33.05;;;;;;;;;;10382268;28;20441;-73
2021/11/16 01:10:50;;;;;;;76.13;35.20;;;;;;;;;;10382423;28;20109;-73
2021/11/16 01:15:51;;;;;;;64.72;33.80;;;;;;;;;;10382373;28;20085;-73
2021/11/16 01:20:51;;;;;;;71.05;32.22;;;;;;;;;;10382081;28;20545;-73
2021/11/16 01:25:51;;;;;;;65.45;34.47;;;;;;;;;;10383304;28;20057;-74
2021/11/16 01:30:53;;;;;;;77.87;34.47;;;;;;;;;;10381599;28;20109;-73
2021/11/16 01:35:53;;;;;;;76.72;35.83;;;;;;;;;;10380276;28;20271;-73
2021/11/16 01:40:54;;;;;;;82.33;37.23;;;;;;;;;;10381869;28;20029;-73
2021/11/16 01:45:54;;;;;;;66.93;33.45;;;;;;;;;;10382100;28;20347;-73
2021/11/16 01:50:54;;;;;;;75.43;38.65;;;;;;;;;;10381187;28;20026;-73
2021/11/16 01:55:55;;;;;;;81.20;37.53;;;;;;;;;;10380941;28;20443;-73
2021/11/16 02:00:55;;;;;;;74.80;35.80;;;;;;;;;;10380258;28;20034;-73
2021/11/16 02:05:56;;;;;;;82.93;40.70;;;;;;;;;;10380738;28;20594;-73
2021/11/16 02:10:56;;;;;;;71.72;37.38;;;;;;;;;;10380513;28;20471;-73
2021/11/16 02:15:56;;;;;;;71.28;35.13;;;;;;;;;;10379708;28;20034;-73
2021/11/16 02:20:57;;;;;;;65.30;33.85;;;;;;;;;;10394988;28;20648;-73
2021/11/16 02:25:57;;;;;;;70.72;37.00;;;;;;;;;;10381083;28;20053;-73
2021/11/16 02:30:57;;;;;;;72.88;35.53;;;;;;;;;;10379482;28;20026;-73
2021/11/16 02:35:57;;;;;;;61.38;30.08;;;;;;;;;;10379764;28;20052;-73
2021/11/16 02:40:58;;;;;;;52.92;29.55;;;;;;;;;;10394259;28;20057;-73
2021/11/16 02:45:58;;;;;;;64.43;32.80;;;;;;;;;;10377644;28;20030;-73
2021/11/16 02:50:59;;;;;;;57.92;31.38;;;;;;;;;;10378715;28;20375;-73
2021/11/16 02:55:59;;;;;;;57.38;29.95;;;;;;;;;;10377850;28;20364;-73
2021/11/16 03:01:04;;;;;;;62.45;31.40;;;;;;;;;;10378312;28;20034;-73
2021/11/16 03:06:05;;;;;;;43.10;28.83;;;;;;;;;;10378131;28;20026;-73
2021/11/16 03:11:07;;;;;;;78.82;33.53;;;;;;;;;;10378987;28;20076;-73
2021/11/16 03:16:09;;;;;;;69.70;31.45;;;;;;;;;;10392836;28;20474;-73
2021/11/16 03:21:12;;;;;;;57.03;31.23;;;;;;;;;;10377951;28;20038;-73
2021/11/16 03:26:12;;;;;;;57.10;29.55;;;;;;;;;;10391147;28;20062;-73
2021/11/16 03:36:22;;;;;;;61.70;27.63;;;;;;;;;;10378137;28;20466;-73
2021/11/16 03:41:23;;;;;;;68.15;33.10;;;;;;;;;;10391912;28;20120;-73
2021/11/16 03:46:23;;;;;;;67.35;33.30;;;;;;;;;;10376504;28;20030;-73
2021/11/16 03:51:23;;;;;;;41.80;29.63;;;;;;;;;;10376387;28;20045;-73
2021/11/16 03:56:23;;;;;;;58.95;29.38;;;;;;;;;;10377203;28;20650;-73
2021/11/16 04:01:24;;;;;;;55.88;31.80;;;;;;;;;;10377060;28;20042;-73
2021/11/16 04:06:24;;;;;;;71.40;32.50;;;;;;;;;;10375859;28;20029;-73
2021/11/16 04:11:25;;;;;;;58.13;28.65;;;;;;;;;;10375700;28;20350;-73
2021/11/16 04:16:25;;;;;;;63.53;31.67;;;;;;;;;;10390770;28;20028;-73
2021/11/16 04:21:25;;;;;;;64.80;30.42;;;;;;;;;;10374488;28;20044;-73
2021/11/16 04:26:25;;;;;;;65.93;33.78;;;;;;;;;;10375733;28;20030;-73
2021/11/16 04:31:28;;;;;;;67.07;33.85;;;;;;;;;;10374909;28;20030;-73
2021/11/16 04:36:28;;;;;;;63.17;32.72;;;;;;;;;;10373577;28;20380;-73
2021/11/16 04:41:28;;;;;;;61.95;32.70;;;;;;;;;;10374812;28;20040;-73
2021/11/16 04:46:29;;;;;;;56.35;33.03;;;;;;;;;;10374844;28;20392;-73
2021/11/16 05:07:10;;;;;;;62.80;33.38;;;;;;;;;;10374371;28;20426;-73
2021/11/16 05:12:10;;;;;;;63.22;32.45;;;;;;;;;;10375530;28;20379;-73
2021/11/16 05:17:11;;;;;;;58.58;33.58;;;;;;;;;;10374194;28;20045;-73
2021/11/16 05:22:11;;;;;;;55.70;30.98;;;;;;;;;;10389254;28;20104;-73
2021/11/16 05:27:11;;;;;;;67.03;32.10;;;;;;;;;;10373888;28;20029;-73
2021/11/16 05:32:11;;;;;;;64.15;33.42;;;;;;;;;;10373872;28;20039;-73
2021/11/16 05:37:12;;;;;;;60.93;31.90;;;;;;;;;;10374888;28;20030;-73
2021/11/16 05:42:12;;;;;;;82.22;37.33;;;;;;;;;;10373061;28;20283;-73
2021/11/16 05:47:12;;;;;;;62.70;32.80;;;;;;;;;;10374476;28;20482;-73
2021/11/16 05:52:12;;;;;;;73.28;37.03;;;;;;;;;;10380825;28;20506;-73
2021/11/16 05:57:13;;;;;;;67.32;34.10;;;;;;;;;;10395947;28;20264;-73
2021/11/16 06:02:14;;;;;;;58.42;31.70;;;;;;;;;;10396234;28;20057;-73
2021/11/16 06:07:14;;;;;;;75.85;33.00;;;;;;;;;;10396153;28;20061;-73
2021/11/16 06:12:14;;;;;;;58.97;33.80;;;;;;;;;;10395370;28;20030;-73
2021/11/16 06:17:14;;;;;;;71.45;31.08;;;;;;;;;;10379591;28;20465;-73
2021/11/16 06:22:14;;;;;;;67.53;33.92;;;;;;;;;;10379450;28;20068;-73
2021/11/16 06:27:15;;;;;;;51.95;32.17;;;;;;;;;;10379810;28;20105;-73
2021/11/16 06:32:15;;;;;;;57.88;29.38;;;;;;;;;;10379125;28;20030;-73
2021/11/16 06:37:16;;;;;;;61.00;29.75;;;;;;;;;;10378875;28;20463;-73
2021/11/16 06:42:16;;;;;;;68.68;33.35;;;;;;;;;;10378216;28;20022;-73
2021/11/16 06:47:16;;;;;;;60.15;30.73;;;;;;;;;;10378609;28;20483;-72
2021/11/16 06:52:17;;;;;;;57.90;32.70;;;;;;;;;;10378367;28;20030;-75
2021/11/16 06:57:17;;;;;;;65.35;31.20;;;;;;;;;;10378999;28;20034;-77
2021/11/16 07:02:21;;;;;;;60.20;30.10;;;;;;;;;;10376624;28;20124;-77
2021/11/16 07:07:21;;;;;;;74.60;31.75;;;;;;;;;;10378973;28;20021;-78
2021/11/16 07:12:25;;;;;;;63.00;31.58;;;;;;;;;;10376779;28;20175;-80
2021/11/16 07:17:25;;;;;;;59.88;31.00;;;;;;;;;;10377236;28;20333;-74
2021/11/16 07:22:26;;;;;;;70.13;32.45;;;;;;;;;;10376859;28;20053;-73
2021/11/16 07:27:32;;;;;;;56.38;29.20;;;;;;;;;;10393373;28;20104;-74
2021/11/16 07:32:41;;;;;;;67.03;32.83;;;;;;;;;;10376890;28;20024;-74
2021/11/16 07:37:42;;;;;;;79.85;34.35;;;;;;;;;;10376518;28;20356;-74
2021/11/16 07:42:49;;;;;;;75.53;36.28;;;;;;;;;;10376868;28;20034;-73
2021/11/16 07:47:56;;;;;;;75.65;32.25;;;;;;;;;;10376349;28;20423;-74
2021/11/16 07:53:09;;;;;;;70.03;33.45;;;;;;;;;;10392270;28;20451;-74
2021/11/16 07:58:10;;;;;;;71.75;31.83;;;;;;;;;;10375700;28;20029;-74
2021/11/16 08:03:13;;;;;;;59.95;33.95;;;;;;;;;;10376140;28;20109;-74
2021/11/16 08:13:27;;;;;;;65.18;30.73;;;;;;;;;;10389929;28;20041;-73
2021/11/16 08:18:34;;;;;;;75.40;30.40;;;;;;;;;;10389282;28;20084;-73
2021/11/16 08:23:35;;;;;;;52.78;29.40;;;;;;;;;;10390191;28;20099;-73
2021/11/16 08:28:35;;;;;;;55.72;30.92;;;;;;;;;;10374862;28;20531;-74
2021/11/16 08:33:35;;;;;;;50.05;26.92;;;;;;;;;;10390002;28;20108;-74
2021/11/16 08:38:36;;;;;;;73.53;33.28;;;;;;;;;;10388907;28;20538;-73
2021/11/16 08:43:37;;;;;;;56.13;30.35;;;;;;;;;;10374524;28;20026;-73
2021/11/16 08:48:40;;;;;;;67.22;31.13;;;;;;;;;;10373894;28;20483;-73
2021/11/16 08:53:41;;;;;;;67.28;32.20;;;;;;;;;;10374068;28;20444;-74
2021/11/16 08:58:41;;;;;;;67.75;33.28;;;;;;;;;;10374505;28;20037;-74
2021/11/16 09:03:45;;;;;;;68.80;34.65;;;;;;;;;;10373799;28;20121;-77
2021/11/16 09:08:46;;;;;;;75.28;34.20;;;;;;;;;;10374591;28;20026;-73
2021/11/16 09:13:46;;;;;;;67.10;34.53;;;;;;;;;;10388904;28;20117;-73
2021/11/16 09:18:52;;;;;;;63.90;32.83;;;;;;;;;;10374334;28;20050;-73
2021/11/16 09:24:08;;;;;;;59.43;29.73;;;;;;;;;;10377999;28;20148;-73
2021/11/16 09:29:12;;;;;;;58.25;31.90;;;;;;;;;;10381414;28;20014;-73
2021/11/16 09:34:12;;;;;;;68.40;32.45;;;;;;;;;;10381228;28;20487;-73
2021/11/16 09:39:16;;;;;;;61.42;32.10;;;;;;;;;;10380367;28;20037;-73
2021/11/16 09:44:24;;;;;;;72.55;33.45;;;;;;;;;;10380765;28;20034;-73
2021/11/16 09:49:30;;;;;;;58.10;32.53;;;;;;;;;;10381481;28;20117;-74
2021/11/16 09:54:31;;;;;;;73.13;30.70;;;;;;;;;;10380181;28;20020;-73
2021/11/16 09:59:32;;;;;;;63.10;27.88;;;;;;;;;;10395469;28;20448;-73
2021/11/16 10:04:35;;;;;;;69.45;31.90;;;;;;;;;;10379837;28;20036;-73
2021/11/16 10:09:36;;;;;;;57.88;28.67;;;;;;;;;;10379809;28;20030;-73
2021/11/16 10:14:36;;;;;;;47.22;27.90;;;;;;;;;;10395470;28;20029;-73
2021/11/16 10:19:37;;;;;;;66.72;28.42;;;;;;;;;;10378038;28;20116;-73
2021/11/16 10:24:37;;;;;;;45.22;26.13;;;;;;;;;;10393476;28;20132;-73
2021/11/16 10:29:37;;;;;;;51.63;25.97;;;;;;;;;;10380990;28;20080;-73
2021/11/16 10:34:39;;;;;;;65.93;30.92;;;;;;;;;;10379326;28;20346;-73
2021/11/16 10:39:39;;;;;;;52.70;28.00;;;;;;;;;;10378848;28;20022;-73
2021/11/16 10:44:40;;;;;;;52.22;27.77;;;;;;;;;;10393264;28;20475;-73
2021/11/16 10:49:40;;;;;;;59.97;28.40;;;;;;;;;;10393902;28;20108;-73
2021/11/16 10:54:56;;;;;;;57.28;28.27;;;;;;;;;;10394495;28;20033;-73
2021/11/16 10:59:57;;;;;;;61.40;30.52;;;;;;;;;;10378109;28;20452;-73
2021/11/16 11:04:57;;;;;;;52.58;28.95;;;;;;;;;;10392978;28;20058;-73
2021/11/16 11:09:57;;;;;;;49.60;26.33;;;;;;;;;;10377612;28;20157;-73
2021/11/16 11:14:58;;;;;;;52.50;28.60;;;;;;;;;;10377475;28;20152;-73
2021/11/16 11:20:05;;;;;;;54.17;27.60;;;;;;;;;;10376548;28;20112;-73
2021/11/16 11:25:36;;;;;;;73.05;29.02;;;;;;;;;;10376127;28;20475;-73
2021/11/16 11:30:37;;;;;;;68.20;29.92;;;;;;;;;;10388110;28;20026;-73
2021/11/16 11:35:37;;;;;;;61.70;23.70;;;;;;;;;;10377119;28;20034;-73
2021/11/16 11:40:39;;;;;;;46.78;27.25;;;;;;;;;;10376217;28;20493;-73
2021/11/16 11:45:40;;;;;;;43.33;20.83;;;;;;;;;;10375781;28;20021;-73
2021/11/16 11:50:44;;;;;;;42.35;20.48;;;;;;;;;;10391915;28;20030;-73
2021/11/16 11:55:45;;;;;;;53.85;22.15;;;;;;;;;;10390870;28;20435;-73
2021/11/16 12:00:46;;;;;;;44.58;22.83;;;;;;;;;;10390867;28;20021;-73
2021/11/16 12:05:47;;;;;;;50.00;25.48;;;;;;;;;;10390237;28;20025;-73
2021/11/16 12:10:48;;;;;;;50.50;23.17;;;;;;;;;;10390527;28;20030;-73
2021/11/16 13:08:37;;;;;;;76.65;33.60;;;;;;;;;;10612962;27;1394029;-76
2021/11/16 13:13:41;;;;;;;60.70;32.38;;;;;;;;;;10617588;28;20036;-76
2021/11/16 13:18:41;;;;;;;57.53;30.17;;;;;;;;;;10617731;28;20275;-77
2021/11/16 13:23:50;;;;;;;57.60;30.63;;;;;;;;;;10617095;28;20193;-75
2021/11/16 13:28:57;;;;;;;66.00;33.67;;;;;;;;;;10617093;28;20027;-76
2021/11/16 13:34:03;;;;;;;58.78;32.60;;;;;;;;;;10617069;28;20032;-76
2021/11/16 13:39:04;;;;;;;63.28;33.70;;;;;;;;;;10598959;28;20046;-75
2021/11/16 13:44:11;;;;;;;64.80;34.33;;;;;;;;;;10616503;28;20099;-76
2021/11/16 13:49:17;;;;;;;64.82;33.85;;;;;;;;;;10581169;28;20487;-76
2021/11/16 13:54:18;;;;;;;80.30;34.83;;;;;;;;;;10598477;28;20110;-75
2021/11/16 13:59:19;;;;;;;67.45;35.40;;;;;;;;;;10616648;28;20110;-76
2021/11/16 14:04:19;;;;;;;74.65;36.88;;;;;;;;;;10615422;28;20093;-75
2021/11/16 14:09:22;;;;;;;59.92;31.92;;;;;;;;;;10589656;28;20410;-76
2021/11/16 14:14:24;;;;;;;57.35;32.92;;;;;;;;;;10569017;28;20063;-76
2021/11/16 14:19:25;;;;;;;64.28;33.80;;;;;;;;;;10587129;28;20036;-76
2021/11/16 14:24:26;;;;;;;70.32;32.78;;;;;;;;;;10586230;28;20460;-76
2021/11/16 14:29:26;;;;;;;69.03;32.80;;;;;;;;;;10568420;28;20461;-76
2021/11/16 14:34:27;;;;;;;72.07;34.40;;;;;;;;;;10567785;28;20067;-76
2021/11/16 14:39:32;;;;;;;64.85;37.42;;;;;;;;;;10567857;28;20035;-76
2021/11/16 14:44:41;;;;;;;71.20;37.83;;;;;;;;;;10569011;28;20024;-76
2021/11/16 14:54:43;;;;;;;73.90;42.45;;;;;;;;;;10614089;28;20035;-77
2021/11/16 14:59:45;;;;;;;70.05;39.47;;;;;;;;;;10551606;28;20023;-76
2021/11/16 15:04:45;;;;;;;73.53;40.42;;;;;;;;;;10585016;28;20043;-76
2021/11/16 15:09:56;;;;;;;60.28;38.20;;;;;;;;;;10549658;28;20020;-76
2021/11/16 15:15:03;;;;;;;72.82;41.15;;;;;;;;;;10566239;28;20518;-76
2021/11/16 15:20:13;;;;;;;78.97;42.35;;;;;;;;;;10566576;28;20051;-76
2021/11/16 15:25:16;;;;;;;78.90;41.85;;;;;;;;;;10583710;28;20027;-76
2021/11/16 15:30:19;;;;;;;75.03;42.08;;;;;;;;;;10565879;28;20020;-76
2021/11/16 15:35:34;;;;;;;83.20;39.10;;;;;;;;;;10583826;28;20657;-76
2021/11/16 15:40:35;;;;;;;82.00;41.97;;;;;;;;;;10565514;28;20051;-76
2021/11/16 15:45:48;;;;;;;79.90;35.63;;;;;;;;;;10583266;28;20051;-76
2021/11/16 15:51:13;;;;;;;80.25;41.25;;;;;;;;;;10583495;28;20015;-76
2021/11/16 16:01:15;;;;;;;72.38;39.85;;;;;;;;;;10583026;28;20035;-75
2021/11/16 16:06:16;;;;;;;78.00;41.45;;;;;;;;;;10547109;28;20051;-76
2021/11/16 16:11:43;;;;;;;78.97;39.13;;;;;;;;;;10564217;28;20019;-76
2021/11/16 16:16:47;;;;;;;80.57;40.13;;;;;;;;;;10564958;28;20479;-76
2021/11/16 16:21:48;;;;;;;80.43;40.08;;;;;;;;;;10547204;28;20027;-76
2021/11/16 16:26:48;;;;;;;68.25;38.92;;;;;;;;;;10581513;28;20091;-76
2021/11/16 16:31:49;;;;;;;80.78;37.38;;;;;;;;;;10581575;28;20455;-76
2021/11/16 16:36:49;;;;;;;57.57;34.00;;;;;;;;;;10581541;28;20030;-76
2021/11/16 16:41:49;;;;;;;94.90;38.05;;;;;;;;;;10581324;28;20271;-76
2021/11/16 16:46:51;;;;;;;69.43;35.53;;;;;;;;;;10581279;28;20045;-76
2021/11/16 16:51:51;;;;;;;82.85;35.45;;;;;;;;;;10581184;28;20028;-77
2021/11/16 16:56:54;;;;;;;74.63;39.17;;;;;;;;;;10580792;28;20531;-76
2021/11/16 17:01:57;;;;;;;79.70;35.47;;;;;;;;;;10563486;28;20444;-76
2021/11/16 17:06:57;;;;;;;55.60;32.85;;;;;;;;;;10581561;28;20054;-77
2021/11/16 17:11:59;;;;;;;80.30;37.88;;;;;;;;;;10581469;28;20031;-76
2021/11/16 17:17:00;;;;;;;74.30;38.83;;;;;;;;;;10584929;28;20024;-77
2021/11/16 17:22:01;;;;;;;69.20;34.67;;;;;;;;;;10591983;28;20535;-76
2021/11/16 17:27:02;;;;;;;61.70;32.80;;;;;;;;;;10571164;28;20020;-76
2021/11/16 17:32:03;;;;;;;70.97;32.90;;;;;;;;;;10581468;28;20035;-77
2021/11/16 17:37:03;;;;;;;61.85;31.80;;;;;;;;;;10583829;28;20088;-77
2021/11/16 17:42:04;;;;;;;68.90;34.70;;;;;;;;;;10585579;28;20038;-76
2021/11/16 17:47:04;;;;;;;68.68;35.60;;;;;;;;;;10588859;28;20059;-76
2021/11/16 17:52:05;;;;;;;53.45;31.13;;;;;;;;;;10570157;28;20020;-76
2021/11/16 17:57:05;;;;;;;68.53;36.60;;;;;;;;;;10587424;28;20042;-76
2021/11/16 18:02:08;;;;;;;62.33;30.77;;;;;;;;;;10587597;28;20543;-76
2021/11/16 18:12:28;;;;;;;79.65;35.60;;;;;;;;;;10587158;28;20024;-76
2021/11/16 18:17:29;;;;;;;57.05;34.35;;;;;;;;;;10586747;28;20031;-76
2021/11/16 18:22:29;;;;;;;63.80;33.17;;;;;;;;;;10587126;28;20053;-76
2021/11/16 18:27:29;;;;;;;57.95;31.20;;;;;;;;;;10586503;28;20028;-76
2021/11/16 18:32:32;;;;;;;53.60;30.65;;;;;;;;;;10586736;28;20027;-77
2021/11/16 18:37:32;;;;;;;51.35;29.63;;;;;;;;;;10586396;28;20493;-76
2021/11/16 18:42:38;;;;;;;58.97;32.58;;;;;;;;;;10586913;28;20168;-76
2021/11/16 18:47:46;;;;;;;53.93;33.70;;;;;;;;;;10586216;28;20022;-76
2021/11/16 18:52:46;;;;;;;67.35;31.27;;;;;;;;;;10568720;28;20028;-76
2021/11/16 18:57:47;;;;;;;53.35;30.25;;;;;;;;;;10584935;28;20038;-76
2021/11/16 19:02:47;;;;;;;74.07;37.50;;;;;;;;;;10585379;28;20093;-76
2021/11/16 19:07:47;;;;;;;62.67;33.00;;;;;;;;;;10585512;28;20060;-77
2021/11/16 19:12:47;;;;;;;57.38;32.75;;;;;;;;;;10566862;28;20464;-77
2021/11/16 19:17:48;;;;;;;79.13;35.72;;;;;;;;;;10584967;28;20176;-76
2021/11/16 19:22:49;;;;;;;52.30;35.03;;;;;;;;;;10584491;28;20067;-77
2021/11/16 19:27:57;;;;;;;68.68;32.25;;;;;;;;;;10565629;28;20395;-77
2021/11/16 19:32:59;;;;;;;59.97;33.35;;;;;;;;;;10566557;28;20027;-77
2021/11/16 19:38:04;;;;;;;59.58;30.60;;;;;;;;;;10584198;28;20114;-76
2021/11/16 19:43:07;;;;;;;60.65;33.65;;;;;;;;;;10589244;28;20023;-76
2021/11/16 19:48:08;;;;;;;75.20;37.40;;;;;;;;;;10588054;28;20024;-76
2021/11/16 19:53:08;;;;;;;58.92;31.65;;;;;;;;;;10584547;28;20024;-76
2021/11/16 19:58:11;;;;;;;74.70;37.15;;;;;;;;;;10582297;28;20495;-76
2021/11/16 20:03:15;;;;;;;65.25;36.47;;;;;;;;;;10564598;28;20352;-76
2021/11/16 20:08:19;;;;;;;57.97;33.83;;;;;;;;;;10582028;28;20051;-76
2021/11/16 20:13:19;;;;;;;69.50;35.42;;;;;;;;;;10581900;28;20028;-76
2021/11/16 20:18:19;;;;;;;55.33;33.10;;;;;;;;;;10563638;28;20039;-76
2021/11/16 20:23:19;;;;;;;71.15;37.03;;;;;;;;;;10581909;28;20030;-76
2021/11/16 20:28:28;;;;;;;82.30;39.88;;;;;;;;;;10581760;28;20479;-76
2021/11/16 20:33:32;;;;;;;80.18;35.40;;;;;;;;;;10581733;28;20027;-78
2021/11/16 20:38:43;;;;;;;77.30;39.88;;;;;;;;;;10581687;28;20487;-76
2021/11/16 20:43:49;;;;;;;77.00;36.03;;;;;;;;;;10581618;28;20114;-76
2021/11/16 20:59:39;;;;;;;81.85;39.55;;;;;;;;;;10580886;28;20024;-75
2021/11/16 21:04:39;;;;;;;73.82;37.95;;;;;;;;;;10581247;28;20055;-76
2021/11/16 21:09:40;;;;;;;67.22;37.38;;;;;;;;;;10580908;28;20455;-76
2021/11/16 21:14:40;;;;;;;65.05;36.88;;;;;;;;;;10580298;28;20031;-76
2021/11/16 21:19:41;;;;;;;73.95;37.45;;;;;;;;;;10588308;28;20031;-76
2021/11/16 21:24:41;;;;;;;84.75;40.65;;;;;;;;;;10570809;28;20024;-76
2021/11/16 21:29:44;;;;;;;66.45;38.70;;;;;;;;;;10570603;28;20032;-76
2021/11/16 21:34:44;;;;;;;62.47;32.13;;;;;;;;;;10588483;28;20027;-76
2021/11/16 21:39:45;;;;;;;59.35;34.03;;;;;;;;;;10588210;28;20033;-76
2021/11/16 21:44:45;;;;;;;61.55;29.17;;;;;;;;;;10552983;28;20049;-76
2021/11/16 21:49:46;;;;;;;44.30;27.85;;;;;;;;;;10570254;28;20449;-76
2021/11/16 21:54:46;;;;;;;59.10;31.15;;;;;;;;;;10587563;28;20081;-76
2021/11/16 21:59:47;;;;;;;63.53;31.65;;;;;;;;;;10569600;28;20027;-76
2021/11/16 22:04:56;;;;;;;51.70;26.58;;;;;;;;;;10588016;28;20138;-76
2021/11/16 22:09:56;;;;;;;68.82;33.95;;;;;;;;;;10569243;28;20073;-76
2021/11/16 22:14:57;;;;;;;69.10;32.00;;;;;;;;;;10569691;28;20067;-76
2021/11/16 22:19:57;;;;;;;59.05;30.70;;;;;;;;;;10595295;28;20031;-77
2021/11/16 22:24:57;;;;;;;60.60;30.02;;;;;;;;;;10618361;28;20481;-76
2021/11/16 22:30:03;;;;;;;59.65;28.80;;;;;;;;;;10450661;28;20067;-76
2021/11/16 22:40:08;;;;;;;45.88;24.25;;;;;;;;;;10502615;28;20037;-77
2021/11/16 22:45:09;;;;;;;53.65;25.48;;;;;;;;;;10502295;28;20074;-77
2021/11/16 22:50:09;;;;;;;52.03;26.77;;;;;;;;;;10499686;28;20357;-77
2021/11/16 22:55:10;;;;;;;49.10;23.83;;;;;;;;;;10501631;28;20033;-77
